createdAt,value
2022-08-27T00:00:46.726Z,1.73
2022-08-27T00:03:13.723Z,1.67
2022-08-27T00:05:41.431Z,1.60
2022-08-27T00:08:11.107Z,1.58
2022-08-27T00:10:38.758Z,1.67
2022-08-27T00:13:05.418Z,1.95
2022-08-27T00:15:33.295Z,1.75
2022-08-27T00:18:00.022Z,1.40
2022-08-27T00:20:27.423Z,1.70
2022-08-27T00:22:54.636Z,1.67
2022-08-27T00:25:21.969Z,1.65
2022-08-27T00:27:48.683Z,1.60
2022-08-27T00:30:17.660Z,1.80
2022-08-27T00:32:44.881Z,1.90
2022-08-27T00:35:14.011Z,1.48
2022-08-27T00:37:40.726Z,1.60
2022-08-27T00:40:14.098Z,1.88
2022-08-27T00:42:42.369Z,1.83
2022-08-27T00:45:09.604Z,1.58
2022-08-27T00:47:42.682Z,1.65
2022-08-27T00:50:14.757Z,1.50
2022-08-27T00:52:46.575Z,1.48
2022-08-27T00:55:20.389Z,1.70
2022-08-27T00:57:55.095Z,1.50
2022-08-27T01:00:21.951Z,1.60
2022-08-27T01:02:48.720Z,1.70
2022-08-27T01:05:25.246Z,1.85
2022-08-27T01:07:55.507Z,1.58
2022-08-27T01:10:24.460Z,1.80
2022-08-27T01:12:54.558Z,1.80
2022-08-27T01:15:23.884Z,1.60
2022-08-27T01:17:51.551Z,1.65
2022-08-27T01:20:22.314Z,1.58
2022-08-27T01:22:56.999Z,1.60
2022-08-27T01:25:25.244Z,1.73
2022-08-27T01:27:56.394Z,1.63
2022-08-27T01:30:23.512Z,1.80
2022-08-27T01:32:51.055Z,1.75
2022-08-27T01:35:18.891Z,1.48
2022-08-27T01:37:49.355Z,1.85
2022-08-27T01:40:20.367Z,1.70
2022-08-27T01:42:50.540Z,1.85
2022-08-27T01:45:24.559Z,1.85
2022-08-27T01:47:52.042Z,1.70
2022-08-27T01:50:22.413Z,1.60
2022-08-27T01:52:49.740Z,1.85
2022-08-27T01:55:19.314Z,1.80
2022-08-27T01:57:46.757Z,1.85
2022-08-27T02:00:23.754Z,1.63
2022-08-27T02:02:51.474Z,1.92
2022-08-27T02:05:19.257Z,1.80
2022-08-27T02:07:46.519Z,1.63
2022-08-27T02:10:17.368Z,1.67
2022-08-27T02:12:44.059Z,1.90
2022-08-27T02:15:10.958Z,2.00
2022-08-27T02:17:38.508Z,1.67
2022-08-27T02:20:07.031Z,1.92
2022-08-27T02:22:33.671Z,2.03
2022-08-27T02:25:00.335Z,1.60
2022-08-27T02:27:26.958Z,1.80
2022-08-27T02:29:55.376Z,1.75
2022-08-27T02:32:31.361Z,1.70
2022-08-27T02:34:59.231Z,2.03
2022-08-27T02:37:25.920Z,1.95
2022-08-27T02:39:52.967Z,2.15
2022-08-27T02:42:19.657Z,2.08
2022-08-27T02:44:47.134Z,2.00
2022-08-27T02:47:15.260Z,1.88
2022-08-27T02:49:42.017Z,1.92
2022-08-27T02:52:08.838Z,1.90
2022-08-27T02:54:35.770Z,1.80
2022-08-27T02:57:02.406Z,1.98
2022-08-27T02:59:29.038Z,2.00
2022-08-27T03:01:55.949Z,2.08
2022-08-27T03:04:23.630Z,1.75
2022-08-27T03:06:50.311Z,2.05
2022-08-27T03:09:16.965Z,2.00
2022-08-27T03:11:43.631Z,2.28
2022-08-27T03:14:10.327Z,2.30
2022-08-27T03:16:37.875Z,2.08
2022-08-27T03:19:09.061Z,2.33
2022-08-27T03:21:36.735Z,2.35
2022-08-27T03:24:09.516Z,2.45
2022-08-27T03:26:39.246Z,3.00
2022-08-27T03:29:07.532Z,3.80
2022-08-27T03:31:34.248Z,2.88
2022-08-27T03:34:06.684Z,2.30
2022-08-27T03:36:33.776Z,2.60
2022-08-27T03:39:00.430Z,2.13
2022-08-27T03:41:43.458Z,1.90
2022-08-27T03:44:21.583Z,2.60
2022-08-27T03:46:49.738Z,2.10
2022-08-27T03:49:20.649Z,2.05
2022-08-27T03:51:49.521Z,2.20
2022-08-27T03:54:16.247Z,2.13
2022-08-27T03:56:43.167Z,2.30
2022-08-27T03:59:09.948Z,2.22
2022-08-27T04:01:36.742Z,2.65
2022-08-27T04:04:03.798Z,2.08
2022-08-27T04:06:30.459Z,2.08
2022-08-27T04:08:57.093Z,2.38
2022-08-27T04:11:23.912Z,2.80
2022-08-27T04:13:51.302Z,2.50
2022-08-27T04:16:18.020Z,2.45
2022-08-27T04:18:44.786Z,2.00
2022-08-27T04:21:13.459Z,1.90
2022-08-27T04:23:41.959Z,2.10
2022-08-27T04:26:10.175Z,2.45
2022-08-27T04:28:38.853Z,2.30
2022-08-27T04:31:16.649Z,2.25
2022-08-27T04:33:50.922Z,2.30
2022-08-27T04:36:17.800Z,2.90
2022-08-27T04:38:44.466Z,2.15
2022-08-27T04:41:21.116Z,2.40
2022-08-27T04:43:57.450Z,2.40
2022-08-27T04:46:26.680Z,1.95
2022-08-27T04:48:53.660Z,2.20
2022-08-27T04:51:20.943Z,2.25
2022-08-27T04:53:49.741Z,2.10
2022-08-27T04:56:18.868Z,2.10
2022-08-27T04:58:45.592Z,2.40
2022-08-27T05:01:17.340Z,2.05
2022-08-27T05:03:44.196Z,2.28
2022-08-27T05:06:10.999Z,2.00
2022-08-27T05:08:39.662Z,2.20
2022-08-27T05:11:13.456Z,2.05
2022-08-27T05:13:40.950Z,1.85
2022-08-27T05:16:11.209Z,2.10
2022-08-27T05:18:47.687Z,2.40
2022-08-27T05:21:21.140Z,2.08
2022-08-27T05:26:15.543Z,1.92
2022-08-27T05:28:42.671Z,2.10
2022-08-27T05:31:11.689Z,1.90
2022-08-27T05:33:40.550Z,1.90
2022-08-27T05:36:08.422Z,1.95
2022-08-27T05:38:35.088Z,2.00
2022-08-27T05:41:06.683Z,2.17
2022-08-27T05:43:33.930Z,1.98
2022-08-27T05:46:05.642Z,2.20
2022-08-27T05:48:33.844Z,2.38
2022-08-27T05:51:26.526Z,1.83
2022-08-27T05:54:04.511Z,2.10
2022-08-27T05:56:36.201Z,2.45
2022-08-27T05:59:21.899Z,2.10
2022-08-27T06:01:50.590Z,1.95
2022-08-27T06:04:18.692Z,1.95
2022-08-27T06:06:46.138Z,2.30
2022-08-27T06:09:16.691Z,1.98
2022-08-27T06:11:43.426Z,2.22
2022-08-27T06:14:10.842Z,2.20
2022-08-27T06:16:38.410Z,1.80
2022-08-27T06:19:05.952Z,2.20
2022-08-27T06:21:33.376Z,2.58
2022-08-27T06:24:00.290Z,2.45
2022-08-27T06:26:28.108Z,2.33
2022-08-27T06:28:55.269Z,2.15
2022-08-27T06:31:25.005Z,2.05
2022-08-27T06:33:53.691Z,2.30
2022-08-27T06:36:25.600Z,2.75
2022-08-27T06:38:54.313Z,2.35
2022-08-27T06:41:24.204Z,2.40
2022-08-27T06:43:51.894Z,2.15
2022-08-27T06:46:22.013Z,2.15
2022-08-27T06:48:52.007Z,2.10
2022-08-27T06:51:28.083Z,2.72
2022-08-27T06:53:57.390Z,2.10
2022-08-27T06:56:24.459Z,2.45
2022-08-27T06:58:55.491Z,2.30
2022-08-27T07:01:31.554Z,2.20
2022-08-27T07:04:00.055Z,2.15
2022-08-27T07:06:29.208Z,1.98
2022-08-27T07:08:57.006Z,2.10
2022-08-27T07:11:24.268Z,2.10
2022-08-27T07:13:51.323Z,2.10
2022-08-27T07:16:22.765Z,2.10
2022-08-27T07:18:52.413Z,1.98
2022-08-27T07:21:22.309Z,1.67
2022-08-27T07:23:52.282Z,1.98
2022-08-27T07:26:19.755Z,1.50
2022-08-27T07:28:47.888Z,1.40
2022-08-27T07:31:20.403Z,1.42
2022-08-27T07:33:51.526Z,1.30
2022-08-27T07:36:21.339Z,1.58
2022-08-27T07:38:57.051Z,1.40
2022-08-27T07:41:30.736Z,1.30
2022-08-27T07:44:20.802Z,1.10
2022-08-27T07:46:49.415Z,1.70
2022-08-27T07:49:17.547Z,1.63
2022-08-27T07:51:44.574Z,1.40
2022-08-27T07:54:11.227Z,1.30
2022-08-27T07:56:37.921Z,1.65
2022-08-27T07:59:04.619Z,1.40
2022-08-27T08:01:31.313Z,1.52
2022-08-27T08:03:58.165Z,1.27
2022-08-27T08:06:24.860Z,1.20
2022-08-27T08:08:51.935Z,1.20
2022-08-27T08:11:20.337Z,1.20
2022-08-27T08:13:47.650Z,1.27
2022-08-27T08:16:14.391Z,1.60
2022-08-27T08:18:41.199Z,1.00
2022-08-27T08:21:12.343Z,1.33
2022-08-27T08:23:39.933Z,1.30
2022-08-27T08:26:08.183Z,1.10
2022-08-27T08:28:34.840Z,1.23
2022-08-27T08:31:01.887Z,1.40
2022-08-27T08:33:31.384Z,1.20
2022-08-27T08:36:07.203Z,1.00
2022-08-27T08:38:34.100Z,1.35
2022-08-27T08:41:01.250Z,1.17
2022-08-27T08:43:46.805Z,1.38
2022-08-27T08:46:39.963Z,1.15
2022-08-27T08:49:34.689Z,1.20
2022-08-27T08:52:30.852Z,1.08
2022-08-27T08:55:23.960Z,1.35
2022-08-27T08:58:13.376Z,1.15
2022-08-27T09:00:43.777Z,1.20
2022-08-27T09:03:13.926Z,1.00
2022-08-27T09:05:47.990Z,1.40
2022-08-27T09:08:35.210Z,1.20
2022-08-27T09:11:09.179Z,1.20
2022-08-27T09:16:08.956Z,1.30
2022-08-27T09:18:39.263Z,1.27
2022-08-27T09:21:28.780Z,1.00
2022-08-27T09:23:57.254Z,1.50
2022-08-27T09:26:27.011Z,1.50
2022-08-27T09:29:17.209Z,1.17
2022-08-27T09:31:52.406Z,1.02
2022-08-27T09:34:19.626Z,1.23
2022-08-27T09:37:04.643Z,1.60
2022-08-27T09:39:50.162Z,1.42
2022-08-27T09:42:31.481Z,1.25
2022-08-27T09:44:58.475Z,1.30
2022-08-27T09:47:25.837Z,1.20
2022-08-27T09:50:08.300Z,1.30
2022-08-27T09:52:59.080Z,1.25
2022-08-27T09:55:47.130Z,1.42
2022-08-27T09:58:23.830Z,1.13
2022-08-27T10:01:17.102Z,1.20
2022-08-27T10:03:43.845Z,1.27
2022-08-27T10:06:11.651Z,1.20
2022-08-27T10:08:46.356Z,1.20
2022-08-27T10:11:37.744Z,1.17
2022-08-27T10:14:25.644Z,1.23
2022-08-27T10:17:15.886Z,1.38
2022-08-27T10:20:29.640Z,1.33
2022-08-27T10:23:11.307Z,1.25
2022-08-27T10:25:54.899Z,1.40
2022-08-27T10:28:48.762Z,1.20
2022-08-27T10:31:38.974Z,1.90
2022-08-27T10:34:32.887Z,2.20
2022-08-27T10:37:14.444Z,1.30
2022-08-27T10:40:08.098Z,1.08
2022-08-27T10:42:51.999Z,1.30
2022-08-27T10:45:42.633Z,1.27
2022-08-27T10:48:26.891Z,1.20
2022-08-27T10:51:08.288Z,1.58
2022-08-27T10:53:47.607Z,1.40
2022-08-27T10:56:16.799Z,1.30
2022-08-27T10:58:53.555Z,1.30
2022-08-27T11:01:48.304Z,1.00
2022-08-27T11:04:30.898Z,1.30
2022-08-27T11:07:09.288Z,1.13
2022-08-27T11:09:56.194Z,1.20
2022-08-27T11:12:33.534Z,1.08
2022-08-27T11:15:12.779Z,1.23
2022-08-27T11:17:55.059Z,1.50
2022-08-27T11:20:33.926Z,1.40
2022-08-27T11:25:35.930Z,1.10
2022-08-27T11:28:04.580Z,1.08
2022-08-27T11:30:55.334Z,1.33
2022-08-27T11:33:47.242Z,1.15
2022-08-27T11:36:38.460Z,1.33
2022-08-27T11:39:37.161Z,1.38
2022-08-27T11:42:08.591Z,1.27
2022-08-27T11:44:42.985Z,1.55
2022-08-27T11:47:14.977Z,1.48
2022-08-27T11:49:43.990Z,1.55
2022-08-27T11:52:20.083Z,1.38
2022-08-27T11:54:50.456Z,1.17
2022-08-27T11:57:37.799Z,1.20
2022-08-27T12:00:36.099Z,1.33
2022-08-27T12:03:09.189Z,1.33
2022-08-27T12:05:38.181Z,1.08
2022-08-27T12:08:22.846Z,1.30
2022-08-27T12:10:52.289Z,1.50
2022-08-27T12:13:34.389Z,1.27
2022-08-27T12:16:23.676Z,1.35
2022-08-27T12:19:10.409Z,1.23
2022-08-27T12:21:39.763Z,1.25
2022-08-27T12:24:37.242Z,1.25
2022-08-27T12:27:15.778Z,1.20
2022-08-27T12:30:00.508Z,1.10
2022-08-27T12:32:39.113Z,1.10
2022-08-27T12:35:05.928Z,1.00
2022-08-27T12:37:44.810Z,1.27
2022-08-27T12:41:03.606Z,1.05
2022-08-27T12:43:34.897Z,1.50
2022-08-27T12:46:13.522Z,1.00
2022-08-27T12:49:37.786Z,1.10
2022-08-27T12:51:53.797Z,1.30
2022-08-27T12:54:53.748Z,1.42
2022-08-27T12:57:29.818Z,1.05
2022-08-27T13:00:18.755Z,1.10
2022-08-27T13:03:15.244Z,1.20
2022-08-27T13:05:44.607Z,1.20
2022-08-27T13:08:28.714Z,1.23
2022-08-27T13:10:56.149Z,1.52
2022-08-27T13:13:25.071Z,1.30
2022-08-27T13:16:03.348Z,1.70
2022-08-27T13:18:30.674Z,1.15
2022-08-27T13:21:08.929Z,1.13
2022-08-27T13:23:35.611Z,1.20
2022-08-27T13:26:08.929Z,1.10
2022-08-27T13:28:38.518Z,1.20
2022-08-27T13:31:07.161Z,1.40
2022-08-27T13:33:38.555Z,1.20
2022-08-27T13:36:06.759Z,1.27
2022-08-27T13:38:36.863Z,1.13
2022-08-27T13:41:10.112Z,0.93
2022-08-27T13:43:42.904Z,1.30
2022-08-27T13:46:14.706Z,1.10
2022-08-27T13:48:44.171Z,1.10
2022-08-27T13:51:12.943Z,1.17
2022-08-27T13:54:12.521Z,1.20
2022-08-27T13:56:48.087Z,1.20
2022-08-27T13:59:19.044Z,1.00
2022-08-27T14:02:11.800Z,1.15
2022-08-27T14:04:42.942Z,1.80
2022-08-27T14:07:13.383Z,1.10
2022-08-27T14:09:55.495Z,1.13
2022-08-27T14:12:38.225Z,1.00
2022-08-27T14:15:33.579Z,1.00
2022-08-27T14:18:01.534Z,1.10
2022-08-27T14:20:28.763Z,1.10
2022-08-27T14:22:55.774Z,1.23
2022-08-27T14:25:22.731Z,1.05
2022-08-27T14:27:54.411Z,1.02
2022-08-27T14:30:28.822Z,1.23
2022-08-27T14:33:00.880Z,1.27
2022-08-27T14:35:29.238Z,1.30
2022-08-27T14:37:56.979Z,1.25
2022-08-27T14:40:23.662Z,1.25
2022-08-27T14:42:50.366Z,0.95
2022-08-27T14:45:18.395Z,1.35
2022-08-27T14:47:45.238Z,1.10
2022-08-27T14:50:14.055Z,1.20
2022-08-27T14:52:40.807Z,1.20
2022-08-27T14:55:10.914Z,1.05
2022-08-27T14:57:38.206Z,1.20
2022-08-27T15:00:07.505Z,1.30
2022-08-27T15:02:34.876Z,1.17
2022-08-27T15:05:01.628Z,0.95
2022-08-27T15:07:38.041Z,1.13
2022-08-27T15:10:06.264Z,1.10
2022-08-27T15:12:33.099Z,1.35
2022-08-27T15:14:59.811Z,1.13
2022-08-27T15:17:34.554Z,0.93
2022-08-27T15:20:01.762Z,1.10
2022-08-27T15:22:33.708Z,0.90
2022-08-27T15:25:02.958Z,1.17
2022-08-27T15:27:38.279Z,0.90
2022-08-27T15:30:10.836Z,1.23
2022-08-27T15:32:41.621Z,1.20
2022-08-27T15:35:13.709Z,1.20
2022-08-27T15:37:41.863Z,1.17
2022-08-27T15:40:09.811Z,1.13
2022-08-27T15:42:36.640Z,1.10
2022-08-27T15:45:04.113Z,1.20
2022-08-27T15:47:30.803Z,1.13
2022-08-27T15:49:57.497Z,1.20
2022-08-27T15:52:24.342Z,1.10
2022-08-27T15:54:51.591Z,1.60
2022-08-27T15:57:22.045Z,1.20
2022-08-27T15:59:49.139Z,1.88
2022-08-27T16:02:22.686Z,1.23
2022-08-27T16:04:49.645Z,1.58
2022-08-27T16:07:20.277Z,1.60
2022-08-27T16:09:48.415Z,1.65
2022-08-27T16:12:22.383Z,1.58
2022-08-27T16:14:54.937Z,1.77
2022-08-27T16:17:22.144Z,1.70
2022-08-27T16:19:49.322Z,1.40
2022-08-27T16:22:16.202Z,1.95
2022-08-27T16:24:43.132Z,1.77
2022-08-27T16:27:09.855Z,1.80
2022-08-27T16:29:36.963Z,1.58
2022-08-27T16:32:04.443Z,1.73
2022-08-27T16:34:32.274Z,1.63
2022-08-27T16:37:00.000Z,1.85
2022-08-27T16:39:31.782Z,1.80
2022-08-27T16:42:00.625Z,1.70
2022-08-27T16:44:27.448Z,1.58
2022-08-27T16:46:54.098Z,1.70
2022-08-27T16:49:39.589Z,1.60
2022-08-27T16:52:07.300Z,1.40
2022-08-27T16:54:35.414Z,1.60
2022-08-27T16:57:02.353Z,1.50
2022-08-27T16:59:29.052Z,1.67
2022-08-27T17:01:56.355Z,1.40
2022-08-27T17:04:30.280Z,1.80
2022-08-27T17:07:03.441Z,1.65
2022-08-27T17:09:30.281Z,1.83
2022-08-27T17:11:58.171Z,1.55
2022-08-27T17:14:26.716Z,1.83
2022-08-27T17:16:53.853Z,1.70
2022-08-27T17:19:24.274Z,1.67
2022-08-27T17:21:51.671Z,1.60
2022-08-27T17:24:18.367Z,1.55
2022-08-27T17:26:45.042Z,2.28
2022-08-27T17:29:11.821Z,1.60
2022-08-27T17:31:42.314Z,1.65
2022-08-27T17:34:16.419Z,1.60
2022-08-27T17:36:44.391Z,1.65
2022-08-27T17:39:12.100Z,1.63
2022-08-27T17:41:45.202Z,1.80
2022-08-27T17:44:23.758Z,1.65
2022-08-27T17:46:51.922Z,1.80
2022-08-27T17:49:19.001Z,1.65
2022-08-27T17:51:48.354Z,1.90
2022-08-27T17:54:29.323Z,2.00
2022-08-27T17:56:56.313Z,1.88
2022-08-27T17:59:23.442Z,1.67
2022-08-27T18:01:50.304Z,1.75
2022-08-27T18:04:17.733Z,1.70
2022-08-27T18:06:44.544Z,1.73
2022-08-27T18:09:11.379Z,1.83
2022-08-27T18:11:39.673Z,1.80
2022-08-27T18:14:06.354Z,1.80
2022-08-27T18:16:33.482Z,1.58
2022-08-27T18:19:01.926Z,1.90
2022-08-27T18:21:33.649Z,1.80
2022-08-27T18:24:01.018Z,1.77
2022-08-27T18:26:29.561Z,1.88
2022-08-27T18:28:57.564Z,1.83
2022-08-27T18:31:29.669Z,2.20
2022-08-27T18:33:56.335Z,1.90
2022-08-27T18:36:23.498Z,1.70
2022-08-27T18:38:50.891Z,2.17
2022-08-27T18:41:19.466Z,1.88
2022-08-27T18:43:46.463Z,2.00
2022-08-27T18:46:13.654Z,2.10
2022-08-27T18:48:40.515Z,1.85
2022-08-27T18:51:10.081Z,2.05
2022-08-27T18:53:40.119Z,2.10
2022-08-27T18:56:08.618Z,2.05
2022-08-27T18:58:38.483Z,1.73
2022-08-27T19:01:08.324Z,1.90
2022-08-27T19:03:38.760Z,2.10
2022-08-27T19:06:08.868Z,1.95
2022-08-27T19:08:37.590Z,1.80
2022-08-27T19:11:04.458Z,2.03
2022-08-27T19:13:31.519Z,1.90
2022-08-27T19:16:02.823Z,1.98
2022-08-27T19:18:32.447Z,2.00
2022-08-27T19:20:59.255Z,2.33
2022-08-27T19:23:26.251Z,1.95
2022-08-27T19:25:53.827Z,2.30
2022-08-27T19:28:26.027Z,2.13
2022-08-27T19:30:52.963Z,2.25
2022-08-27T19:33:19.993Z,2.00
2022-08-27T19:35:46.644Z,1.90
2022-08-27T19:38:14.432Z,2.22
2022-08-27T19:40:41.669Z,2.42
2022-08-27T19:43:08.974Z,2.03
2022-08-27T19:45:36.930Z,1.95
2022-08-27T19:48:07.763Z,2.20
2022-08-27T19:50:34.946Z,2.25
2022-08-27T19:53:01.797Z,2.40
2022-08-27T19:55:28.501Z,2.53
2022-08-27T19:57:55.681Z,2.35
2022-08-27T20:00:24.885Z,2.22
2022-08-27T20:02:55.386Z,1.83
2022-08-27T20:05:22.851Z,2.10
2022-08-27T20:07:51.530Z,2.25
2022-08-27T20:10:21.646Z,1.83
2022-08-27T20:12:49.474Z,2.83
2022-08-27T20:15:17.182Z,2.70
2022-08-27T20:17:45.179Z,2.67
2022-08-27T20:20:12.881Z,2.70
2022-08-27T20:22:42.686Z,2.50
2022-08-27T20:25:09.858Z,2.10
2022-08-27T20:27:37.607Z,2.50
2022-08-27T20:30:05.575Z,2.45
2022-08-27T20:32:32.891Z,2.05
2022-08-27T20:34:59.903Z,2.72
2022-08-27T20:37:26.615Z,2.60
2022-08-27T20:39:53.674Z,2.40
2022-08-27T20:42:20.654Z,2.60
2022-08-27T20:44:47.938Z,2.20
2022-08-27T20:47:15.644Z,3.03
2022-08-27T20:49:44.340Z,2.58
2022-08-27T20:52:12.782Z,3.00
2022-08-27T20:54:40.312Z,2.65
2022-08-27T20:57:08.579Z,3.05
2022-08-27T20:59:54.050Z,2.75
2022-08-27T21:02:23.512Z,3.40
2022-08-27T21:04:51.119Z,2.70
2022-08-27T21:07:18.958Z,3.05
2022-08-27T21:09:56.538Z,2.50
2022-08-27T21:12:26.236Z,3.00
2022-08-27T21:14:55.987Z,2.70
2022-08-27T21:17:24.929Z,2.50
2022-08-27T21:19:51.988Z,3.33
2022-08-27T21:22:19.687Z,3.10
2022-08-27T21:24:47.423Z,2.83
2022-08-27T21:27:15.116Z,2.83
2022-08-27T21:29:41.944Z,2.95
2022-08-27T21:32:09.587Z,2.90
2022-08-27T21:34:36.377Z,2.70
2022-08-27T21:37:04.336Z,2.65
2022-08-27T21:39:32.717Z,3.03
2022-08-27T21:42:00.842Z,2.85
2022-08-27T21:44:29.066Z,2.70
2022-08-27T21:46:55.845Z,2.72
2022-08-27T21:49:22.510Z,3.17
2022-08-27T21:51:49.250Z,2.80
2022-08-27T21:54:16.278Z,2.97
2022-08-27T21:56:43.573Z,2.63
2022-08-27T21:59:10.227Z,2.92
2022-08-27T22:01:37.197Z,3.03
2022-08-27T22:04:04.016Z,2.67
2022-08-27T22:06:30.730Z,2.58
2022-08-27T22:08:57.416Z,3.00
2022-08-27T22:11:25.527Z,3.70
2022-08-27T22:13:53.225Z,2.80
2022-08-27T22:16:20.118Z,2.67
2022-08-27T22:18:47.668Z,3.38
2022-08-27T22:21:21.454Z,2.88
2022-08-27T22:23:51.191Z,4.07
2022-08-27T22:26:18.595Z,2.80
2022-08-27T22:28:45.254Z,2.90
2022-08-27T22:31:12.037Z,2.85
2022-08-27T22:33:38.756Z,3.63
2022-08-27T22:36:05.657Z,3.17
2022-08-27T22:38:32.624Z,2.83
2022-08-27T22:40:59.485Z,3.00
2022-08-27T22:43:27.915Z,2.92
2022-08-27T22:45:54.555Z,2.65
2022-08-27T22:48:21.251Z,2.97
2022-08-27T22:50:47.902Z,2.58
2022-08-27T22:53:14.715Z,2.58
2022-08-27T22:55:41.417Z,2.53
2022-08-27T22:58:08.177Z,3.00
2022-08-27T23:00:37.425Z,3.30
2022-08-27T23:03:06.708Z,3.53
2022-08-27T23:05:40.550Z,3.45
2022-08-27T23:08:11.444Z,2.90
2022-08-27T23:10:38.525Z,2.97
2022-08-27T23:13:06.835Z,2.95
2022-08-27T23:15:34.254Z,2.95
2022-08-27T23:18:01.548Z,2.90
2022-08-27T23:20:28.815Z,2.92
2022-08-27T23:22:56.781Z,3.13
2022-08-27T23:25:43.539Z,3.00
2022-08-27T23:28:14.708Z,3.30
2022-08-27T23:30:42.006Z,2.60
2022-08-27T23:33:08.669Z,2.63
2022-08-27T23:35:35.450Z,3.05
2022-08-27T23:38:02.187Z,3.22
2022-08-27T23:40:28.870Z,2.63
2022-08-27T23:42:55.622Z,2.70
2022-08-27T23:45:25.012Z,3.10
2022-08-27T23:47:51.941Z,3.33
2022-08-27T23:50:18.849Z,3.20
2022-08-27T23:52:45.586Z,2.83
2022-08-27T23:55:12.914Z,2.70
2022-08-27T23:57:40.194Z,2.60
